aviador You're here:

KCQW Decoded Metar

CHERAW in SC, USA
Report Time2017-11-18 13:55:00
UTC Time2017-11-18 13:54:36
Flight Rules vfr VFR
WindCalm
Visibility9999 m
Phenomena:N/A
Clouds:N/A
Expected CloudBase > 1,200 ft AGL from Temp-Dew spread
CeilingNone
Temp07°C (ISA -8)
Dew Point04°C (81% RH)
AAT5.7°C
QNH1018 hPa
Density Alt-722 ft
Elevation240 ft
Report Wrong Elevation
Raw Report
KCQW 181355Z AUTO 00000KT 10SM CLR 07/04 A3005 RMK AO2=

Extra information for KCQW:More info

Metar Taf Metar & Taf Last 4 Metars F.Rules Stats Wind Profile Meteogram Temp Stats Airport Information Weather charts Add Link Nearby VenuesMetar ALERT Operation Metar Decoded Social comments

AIRNAV info for KCQW